sensor_id;sensor_type;location;lat;lon;timestamp;P1;durP1;ratioP1;P2;durP2;ratioP2
56181;SDS011;51963;46.052;14.544;2023-04-24T00:00:34;7.82;;;5.13;;
56181;SDS011;51963;46.052;14.544;2023-04-24T00:03:01;8.30;;;5.40;;
56181;SDS011;51963;46.052;14.544;2023-04-24T00:05:29;7.07;;;4.93;;
56181;SDS011;51963;46.052;14.544;2023-04-24T00:07:55;8.23;;;5.10;;
56181;SDS011;51963;46.052;14.544;2023-04-24T00:10:20;7.15;;;5.18;;
56181;SDS011;51963;46.052;14.544;2023-04-24T00:12:46;6.90;;;5.00;;
56181;SDS011;51963;46.052;14.544;2023-04-24T00:15:20;7.50;;;4.93;;
56181;SDS011;51963;46.052;14.544;2023-04-24T00:17:47;7.05;;;5.53;;
56181;SDS011;51963;46.052;14.544;2023-04-24T00:20:14;7.65;;;5.80;;
56181;SDS011;51963;46.052;14.544;2023-04-24T00:22:40;7.00;;;5.18;;
56181;SDS011;51963;46.052;14.544;2023-04-24T00:25:06;7.65;;;5.55;;
56181;SDS011;51963;46.052;14.544;2023-04-24T00:27:32;6.72;;;5.10;;
56181;SDS011;51963;46.052;14.544;2023-04-24T00:30:00;8.30;;;5.43;;
56181;SDS011;51963;46.052;14.544;2023-04-24T00:32:29;6.82;;;4.72;;
56181;SDS011;51963;46.052;14.544;2023-04-24T00:34:55;8.45;;;6.07;;
56181;SDS011;51963;46.052;14.544;2023-04-24T00:37:21;6.90;;;5.75;;
56181;SDS011;51963;46.052;14.544;2023-04-24T00:39:47;7.05;;;5.22;;
56181;SDS011;51963;46.052;14.544;2023-04-24T00:42:16;7.28;;;5.10;;
56181;SDS011;51963;46.052;14.544;2023-04-24T00:44:41;9.48;;;5.55;;
56181;SDS011;51963;46.052;14.544;2023-04-24T00:47:07;9.10;;;5.25;;
56181;SDS011;51963;46.052;14.544;2023-04-24T00:49:33;6.57;;;5.13;;
56181;SDS011;51963;46.052;14.544;2023-04-24T00:51:59;6.38;;;5.45;;
56181;SDS011;51963;46.052;14.544;2023-04-24T00:54:28;8.30;;;5.53;;
56181;SDS011;51963;46.052;14.544;2023-04-24T00:56:54;6.50;;;5.22;;
56181;SDS011;51963;46.052;14.544;2023-04-24T00:59:22;6.03;;;5.30;;
56181;SDS011;51963;46.052;14.544;2023-04-24T01:01:47;9.10;;;5.15;;
56181;SDS011;51963;46.052;14.544;2023-04-24T01:04:15;6.68;;;5.03;;
56181;SDS011;51963;46.052;14.544;2023-04-24T01:06:43;8.43;;;5.40;;
56181;SDS011;51963;46.052;14.544;2023-04-24T01:09:12;6.95;;;5.00;;
56181;SDS011;51963;46.052;14.544;2023-04-24T01:11:40;9.10;;;5.80;;
56181;SDS011;51963;46.052;14.544;2023-04-24T01:14:10;7.43;;;5.78;;
56181;SDS011;51963;46.052;14.544;2023-04-24T01:16:44;8.52;;;6.05;;
56181;SDS011;51963;46.052;14.544;2023-04-24T01:19:09;8.32;;;5.78;;
56181;SDS011;51963;46.052;14.544;2023-04-24T01:21:37;7.27;;;5.63;;
56181;SDS011;51963;46.052;14.544;2023-04-24T01:24:04;6.32;;;5.15;;
56181;SDS011;51963;46.052;14.544;2023-04-24T01:26:34;8.88;;;5.75;;
56181;SDS011;51963;46.052;14.544;2023-04-24T01:29:04;10.80;;;6.05;;
56181;SDS011;51963;46.052;14.544;2023-04-24T01:31:30;7.18;;;5.78;;
56181;SDS011;51963;46.052;14.544;2023-04-24T01:34:00;7.78;;;5.82;;
56181;SDS011;51963;46.052;14.544;2023-04-24T01:36:26;6.80;;;5.35;;
56181;SDS011;51963;46.052;14.544;2023-04-24T01:38:53;8.10;;;5.68;;
56181;SDS011;51963;46.052;14.544;2023-04-24T01:41:25;9.80;;;5.45;;
56181;SDS011;51963;46.052;14.544;2023-04-24T01:43:54;7.63;;;5.30;;
56181;SDS011;51963;46.052;14.544;2023-04-24T01:46:20;7.72;;;5.78;;
56181;SDS011;51963;46.052;14.544;2023-04-24T01:48:47;8.73;;;5.90;;
56181;SDS011;51963;46.052;14.544;2023-04-24T01:51:13;9.85;;;7.03;;
56181;SDS011;51963;46.052;14.544;2023-04-24T01:53:42;8.75;;;6.10;;
56181;SDS011;51963;46.052;14.544;2023-04-24T01:56:08;8.82;;;6.03;;
56181;SDS011;51963;46.052;14.544;2023-04-24T01:58:34;8.23;;;6.10;;
56181;SDS011;51963;46.052;14.544;2023-04-24T02:01:01;8.27;;;6.10;;
56181;SDS011;51963;46.052;14.544;2023-04-24T02:03:27;9.25;;;5.93;;
56181;SDS011;51963;46.052;14.544;2023-04-24T02:06:00;8.38;;;5.82;;
56181;SDS011;51963;46.052;14.544;2023-04-24T02:08:29;9.65;;;6.30;;
56181;SDS011;51963;46.052;14.544;2023-04-24T02:10:56;9.48;;;6.63;;
56181;SDS011;51963;46.052;14.544;2023-04-24T02:13:26;10.13;;;6.55;;
56181;SDS011;51963;46.052;14.544;2023-04-24T02:15:52;9.05;;;6.30;;
56181;SDS011;51963;46.052;14.544;2023-04-24T02:18:17;8.65;;;6.38;;
56181;SDS011;51963;46.052;14.544;2023-04-24T02:20:46;7.90;;;5.75;;
56181;SDS011;51963;46.052;14.544;2023-04-24T02:23:17;9.40;;;6.32;;
56181;SDS011;51963;46.052;14.544;2023-04-24T02:25:44;10.02;;;6.50;;
56181;SDS011;51963;46.052;14.544;2023-04-24T02:28:09;8.80;;;6.63;;
56181;SDS011;51963;46.052;14.544;2023-04-24T02:30:37;11.15;;;6.82;;
56181;SDS011;51963;46.052;14.544;2023-04-24T02:33:06;8.45;;;6.53;;
56181;SDS011;51963;46.052;14.544;2023-04-24T02:35:33;9.50;;;7.20;;
56181;SDS011;51963;46.052;14.544;2023-04-24T02:37:59;9.20;;;7.05;;
56181;SDS011;51963;46.052;14.544;2023-04-24T02:40:25;11.35;;;7.45;;
56181;SDS011;51963;46.052;14.544;2023-04-24T02:42:53;9.55;;;7.25;;
56181;SDS011;51963;46.052;14.544;2023-04-24T02:45:19;12.23;;;7.35;;
56181;SDS011;51963;46.052;14.544;2023-04-24T02:47:45;9.40;;;7.75;;
56181;SDS011;51963;46.052;14.544;2023-04-24T02:50:10;11.07;;;7.60;;
56181;SDS011;51963;46.052;14.544;2023-04-24T02:52:36;13.18;;;7.53;;
56181;SDS011;51963;46.052;14.544;2023-04-24T02:55:04;11.88;;;8.15;;
56181;SDS011;51963;46.052;14.544;2023-04-24T02:57:30;14.73;;;7.90;;
56181;SDS011;51963;46.052;14.544;2023-04-24T02:59:59;10.40;;;7.35;;
56181;SDS011;51963;46.052;14.544;2023-04-24T03:02:25;9.15;;;7.20;;
56181;SDS011;51963;46.052;14.544;2023-04-24T03:04:55;12.45;;;8.52;;
56181;SDS011;51963;46.052;14.544;2023-04-24T03:07:22;11.32;;;7.40;;
56181;SDS011;51963;46.052;14.544;2023-04-24T03:09:49;11.30;;;8.10;;
56181;SDS011;51963;46.052;14.544;2023-04-24T03:12:15;10.50;;;7.55;;
56181;SDS011;51963;46.052;14.544;2023-04-24T03:14:45;9.55;;;6.80;;
56181;SDS011;51963;46.052;14.544;2023-04-24T03:17:11;10.07;;;6.68;;
56181;SDS011;51963;46.052;14.544;2023-04-24T03:19:36;11.02;;;7.10;;
56181;SDS011;51963;46.052;14.544;2023-04-24T03:22:07;10.50;;;7.70;;
56181;SDS011;51963;46.052;14.544;2023-04-24T03:24:35;11.98;;;7.03;;
56181;SDS011;51963;46.052;14.544;2023-04-24T03:27:01;10.43;;;6.85;;
56181;SDS011;51963;46.052;14.544;2023-04-24T03:29:48;8.35;;;6.40;;
56181;SDS011;51963;46.052;14.544;2023-04-24T03:32:22;8.25;;;6.32;;
56181;SDS011;51963;46.052;14.544;2023-04-24T03:34:51;11.07;;;7.53;;
56181;SDS011;51963;46.052;14.544;2023-04-24T03:37:17;9.10;;;6.22;;
56181;SDS011;51963;46.052;14.544;2023-04-24T03:39:52;9.38;;;6.35;;
56181;SDS011;51963;46.052;14.544;2023-04-24T03:42:23;11.25;;;6.80;;
56181;SDS011;51963;46.052;14.544;2023-04-24T03:44:53;8.40;;;6.18;;
56181;SDS011;51963;46.052;14.544;2023-04-24T03:47:22;11.30;;;7.30;;
56181;SDS011;51963;46.052;14.544;2023-04-24T03:49:54;10.68;;;7.40;;
56181;SDS011;51963;46.052;14.544;2023-04-24T03:52:21;9.35;;;6.93;;
56181;SDS011;51963;46.052;14.544;2023-04-24T03:54:50;10.43;;;7.38;;
56181;SDS011;51963;46.052;14.544;2023-04-24T03:57:15;11.05;;;6.80;;
56181;SDS011;51963;46.052;14.544;2023-04-24T03:59:54;9.85;;;7.22;;
56181;SDS011;51963;46.052;14.544;2023-04-24T04:02:20;11.07;;;7.30;;
56181;SDS011;51963;46.052;14.544;2023-04-24T04:04:47;9.90;;;6.72;;
56181;SDS011;51963;46.052;14.544;2023-04-24T04:07:12;11.20;;;7.35;;
56181;SDS011;51963;46.052;14.544;2023-04-24T04:09:38;12.32;;;6.90;;
56181;SDS011;51963;46.052;14.544;2023-04-24T04:12:04;7.82;;;6.13;;
56181;SDS011;51963;46.052;14.544;2023-04-24T04:14:32;9.30;;;6.68;;
56181;SDS011;51963;46.052;14.544;2023-04-24T04:17:00;12.88;;;7.38;;
56181;SDS011;51963;46.052;14.544;2023-04-24T04:19:28;11.60;;;7.07;;
56181;SDS011;51963;46.052;14.544;2023-04-24T04:21:57;16.52;;;8.00;;
56181;SDS011;51963;46.052;14.544;2023-04-24T04:24:30;11.52;;;7.07;;
56181;SDS011;51963;46.052;14.544;2023-04-24T04:26:59;11.35;;;7.47;;
56181;SDS011;51963;46.052;14.544;2023-04-24T04:29:33;15.35;;;7.97;;
56181;SDS011;51963;46.052;14.544;2023-04-24T04:32:07;10.57;;;7.13;;
56181;SDS011;51963;46.052;14.544;2023-04-24T04:34:36;11.55;;;7.53;;
56181;SDS011;51963;46.052;14.544;2023-04-24T04:37:04;12.65;;;7.95;;
56181;SDS011;51963;46.052;14.544;2023-04-24T04:39:46;13.40;;;8.52;;
56181;SDS011;51963;46.052;14.544;2023-04-24T04:42:20;12.65;;;7.95;;
56181;SDS011;51963;46.052;14.544;2023-04-24T04:44:45;13.57;;;7.90;;
56181;SDS011;51963;46.052;14.544;2023-04-24T04:47:22;12.25;;;8.13;;
56181;SDS011;51963;46.052;14.544;2023-04-24T04:49:50;10.93;;;8.10;;
56181;SDS011;51963;46.052;14.544;2023-04-24T04:52:22;14.13;;;8.00;;
56181;SDS011;51963;46.052;14.544;2023-04-24T04:55:22;11.60;;;7.80;;
56181;SDS011;51963;46.052;14.544;2023-04-24T04:58:17;12.85;;;8.13;;
56181;SDS011;51963;46.052;14.544;2023-04-24T05:00:45;14.88;;;7.80;;
56181;SDS011;51963;46.052;14.544;2023-04-24T05:03:24;14.35;;;8.13;;
56181;SDS011;51963;46.052;14.544;2023-04-24T05:05:57;16.98;;;9.05;;
56181;SDS011;51963;46.052;14.544;2023-04-24T05:08:24;18.95;;;8.70;;
56181;SDS011;51963;46.052;14.544;2023-04-24T05:10:49;15.00;;;9.07;;
56181;SDS011;51963;46.052;14.544;2023-04-24T05:13:15;16.45;;;9.30;;
56181;SDS011;51963;46.052;14.544;2023-04-24T05:15:43;15.73;;;9.60;;
56181;SDS011;51963;46.052;14.544;2023-04-24T05:18:09;17.02;;;9.73;;
56181;SDS011;51963;46.052;14.544;2023-04-24T05:20:40;17.55;;;9.10;;
56181;SDS011;51963;46.052;14.544;2023-04-24T05:23:08;17.42;;;9.55;;
56181;SDS011;51963;46.052;14.544;2023-04-24T05:25:34;19.40;;;10.18;;
56181;SDS011;51963;46.052;14.544;2023-04-24T05:28:06;17.50;;;10.20;;
56181;SDS011;51963;46.052;14.544;2023-04-24T05:30:32;17.30;;;9.95;;
56181;SDS011;51963;46.052;14.544;2023-04-24T05:32:58;17.48;;;10.25;;
56181;SDS011;51963;46.052;14.544;2023-04-24T05:35:24;18.38;;;9.45;;
56181;SDS011;51963;46.052;14.544;2023-04-24T05:37:50;17.83;;;9.93;;
56181;SDS011;51963;46.052;14.544;2023-04-24T05:40:16;16.77;;;9.40;;
56181;SDS011;51963;46.052;14.544;2023-04-24T05:42:42;15.27;;;9.52;;
56181;SDS011;51963;46.052;14.544;2023-04-24T05:45:08;15.57;;;9.15;;
56181;SDS011;51963;46.052;14.544;2023-04-24T05:47:36;18.60;;;9.35;;
56181;SDS011;51963;46.052;14.544;2023-04-24T05:50:02;17.45;;;9.00;;
56181;SDS011;51963;46.052;14.544;2023-04-24T05:52:29;17.08;;;8.90;;
56181;SDS011;51963;46.052;14.544;2023-04-24T05:54:55;12.40;;;8.43;;
56181;SDS011;51963;46.052;14.544;2023-04-24T05:57:26;18.42;;;9.48;;
56181;SDS011;51963;46.052;14.544;2023-04-24T05:59:57;14.65;;;9.38;;
56181;SDS011;51963;46.052;14.544;2023-04-24T06:02:24;16.75;;;9.63;;
56181;SDS011;51963;46.052;14.544;2023-04-24T06:04:51;16.98;;;9.50;;
56181;SDS011;51963;46.052;14.544;2023-04-24T06:07:17;16.15;;;9.55;;
56181;SDS011;51963;46.052;14.544;2023-04-24T06:09:44;13.60;;;9.35;;
56181;SDS011;51963;46.052;14.544;2023-04-24T06:12:10;13.70;;;9.00;;
56181;SDS011;51963;46.052;14.544;2023-04-24T06:14:58;12.98;;;8.55;;
56181;SDS011;51963;46.052;14.544;2023-04-24T06:17:42;14.18;;;9.30;;
56181;SDS011;51963;46.052;14.544;2023-04-24T06:20:08;16.42;;;9.80;;
56181;SDS011;51963;46.052;14.544;2023-04-24T06:22:36;17.87;;;9.07;;
56181;SDS011;51963;46.052;14.544;2023-04-24T06:25:02;14.80;;;8.63;;
56181;SDS011;51963;46.052;14.544;2023-04-24T06:27:31;12.60;;;9.07;;
56181;SDS011;51963;46.052;14.544;2023-04-24T06:30:00;14.50;;;8.98;;
56181;SDS011;51963;46.052;14.544;2023-04-24T06:32:27;13.95;;;9.10;;
56181;SDS011;51963;46.052;14.544;2023-04-24T06:34:56;14.45;;;9.50;;
56181;SDS011;51963;46.052;14.544;2023-04-24T06:37:22;17.42;;;9.18;;
56181;SDS011;51963;46.052;14.544;2023-04-24T06:39:48;17.80;;;10.27;;
56181;SDS011;51963;46.052;14.544;2023-04-24T06:42:13;19.20;;;9.82;;
56181;SDS011;51963;46.052;14.544;2023-04-24T06:44:42;16.77;;;9.75;;
56181;SDS011;51963;46.052;14.544;2023-04-24T06:47:08;14.88;;;9.55;;
56181;SDS011;51963;46.052;14.544;2023-04-24T06:49:36;20.63;;;11.75;;
56181;SDS011;51963;46.052;14.544;2023-04-24T06:52:02;20.38;;;10.75;;
56181;SDS011;51963;46.052;14.544;2023-04-24T06:54:28;21.90;;;11.30;;
56181;SDS011;51963;46.052;14.544;2023-04-24T06:56:54;22.50;;;11.40;;
56181;SDS011;51963;46.052;14.544;2023-04-24T06:59:28;25.17;;;11.00;;
56181;SDS011;51963;46.052;14.544;2023-04-24T07:01:55;26.00;;;11.90;;
56181;SDS011;51963;46.052;14.544;2023-04-24T07:04:21;20.85;;;9.50;;
56181;SDS011;51963;46.052;14.544;2023-04-24T07:06:47;15.45;;;8.70;;
56181;SDS011;51963;46.052;14.544;2023-04-24T07:09:15;17.30;;;7.45;;
56181;SDS011;51963;46.052;14.544;2023-04-24T07:11:44;15.00;;;7.78;;
56181;SDS011;51963;46.052;14.544;2023-04-24T07:14:10;18.50;;;8.40;;
56181;SDS011;51963;46.052;14.544;2023-04-24T07:16:36;14.35;;;8.13;;
56181;SDS011;51963;46.052;14.544;2023-04-24T07:19:02;14.35;;;7.78;;
56181;SDS011;51963;46.052;14.544;2023-04-24T07:21:28;12.75;;;8.27;;
56181;SDS011;51963;46.052;14.544;2023-04-24T07:23:53;16.27;;;8.90;;
56181;SDS011;51963;46.052;14.544;2023-04-24T07:26:19;19.73;;;9.35;;
56181;SDS011;51963;46.052;14.544;2023-04-24T07:28:46;13.95;;;8.70;;
56181;SDS011;51963;46.052;14.544;2023-04-24T07:31:12;18.15;;;9.32;;
56181;SDS011;51963;46.052;14.544;2023-04-24T07:33:37;18.15;;;9.00;;
56181;SDS011;51963;46.052;14.544;2023-04-24T07:36:04;17.27;;;10.05;;
56181;SDS011;51963;46.052;14.544;2023-04-24T07:38:30;17.35;;;11.10;;
56181;SDS011;51963;46.052;14.544;2023-04-24T07:40:56;18.42;;;10.80;;
56181;SDS011;51963;46.052;14.544;2023-04-24T07:43:22;14.50;;;9.98;;
56181;SDS011;51963;46.052;14.544;2023-04-24T07:45:49;19.02;;;10.00;;
56181;SDS011;51963;46.052;14.544;2023-04-24T07:48:16;18.33;;;10.80;;
56181;SDS011;51963;46.052;14.544;2023-04-24T07:50:43;21.67;;;10.48;;
56181;SDS011;51963;46.052;14.544;2023-04-24T07:53:10;17.10;;;9.90;;
56181;SDS011;51963;46.052;14.544;2023-04-24T07:55:35;15.70;;;9.43;;
56181;SDS011;51963;46.052;14.544;2023-04-24T07:58:01;14.95;;;9.60;;
56181;SDS011;51963;46.052;14.544;2023-04-24T08:00:27;15.50;;;9.27;;
56181;SDS011;51963;46.052;14.544;2023-04-24T08:02:53;18.17;;;11.23;;
56181;SDS011;51963;46.052;14.544;2023-04-24T08:05:19;16.73;;;11.23;;
56181;SDS011;51963;46.052;14.544;2023-04-24T08:07:45;18.73;;;10.75;;
56181;SDS011;51963;46.052;14.544;2023-04-24T08:10:14;16.42;;;10.80;;
56181;SDS011;51963;46.052;14.544;2023-04-24T08:12:40;18.55;;;11.65;;
56181;SDS011;51963;46.052;14.544;2023-04-24T08:15:07;17.27;;;11.00;;
56181;SDS011;51963;46.052;14.544;2023-04-24T08:17:34;18.10;;;11.20;;
56181;SDS011;51963;46.052;14.544;2023-04-24T08:20:01;17.33;;;10.27;;
56181;SDS011;51963;46.052;14.544;2023-04-24T08:22:29;14.50;;;9.52;;
56181;SDS011;51963;46.052;14.544;2023-04-24T08:24:55;20.50;;;10.65;;
56181;SDS011;51963;46.052;14.544;2023-04-24T08:27:22;14.25;;;9.75;;
56181;SDS011;51963;46.052;14.544;2023-04-24T08:29:49;18.25;;;10.18;;
56181;SDS011;51963;46.052;14.544;2023-04-24T08:32:18;16.58;;;10.35;;
56181;SDS011;51963;46.052;14.544;2023-04-24T08:37:09;16.60;;;10.15;;
56181;SDS011;51963;46.052;14.544;2023-04-24T08:39:38;20.42;;;10.80;;
56181;SDS011;51963;46.052;14.544;2023-04-24T08:42:04;21.83;;;10.90;;
56181;SDS011;51963;46.052;14.544;2023-04-24T08:44:33;16.70;;;11.25;;
56181;SDS011;51963;46.052;14.544;2023-04-24T08:47:04;20.60;;;11.23;;
56181;SDS011;51963;46.052;14.544;2023-04-24T08:49:30;20.02;;;10.85;;
56181;SDS011;51963;46.052;14.544;2023-04-24T08:51:56;15.93;;;10.70;;
56181;SDS011;51963;46.052;14.544;2023-04-24T08:54:25;23.58;;;10.80;;
56181;SDS011;51963;46.052;14.544;2023-04-24T08:56:51;22.02;;;11.48;;
56181;SDS011;51963;46.052;14.544;2023-04-24T08:59:21;18.45;;;10.20;;
56181;SDS011;51963;46.052;14.544;2023-04-24T09:01:47;20.27;;;12.30;;
56181;SDS011;51963;46.052;14.544;2023-04-24T09:04:14;20.45;;;12.02;;
56181;SDS011;51963;46.052;14.544;2023-04-24T09:09:09;18.83;;;11.18;;
56181;SDS011;51963;46.052;14.544;2023-04-24T09:11:36;24.13;;;12.57;;
56181;SDS011;51963;46.052;14.544;2023-04-24T09:14:02;18.85;;;11.68;;
56181;SDS011;51963;46.052;14.544;2023-04-24T09:16:29;20.92;;;12.00;;
56181;SDS011;51963;46.052;14.544;2023-04-24T09:18:55;111.55;;;29.20;;
56181;SDS011;51963;46.052;14.544;2023-04-24T09:21:21;38.85;;;16.25;;
56181;SDS011;51963;46.052;14.544;2023-04-24T09:23:57;19.13;;;10.20;;
56181;SDS011;51963;46.052;14.544;2023-04-24T09:26:25;15.15;;;9.52;;
56181;SDS011;51963;46.052;14.544;2023-04-24T09:28:50;14.25;;;9.20;;
56181;SDS011;51963;46.052;14.544;2023-04-24T09:31:18;18.85;;;11.77;;
56181;SDS011;51963;46.052;14.544;2023-04-24T09:34:00;27.73;;;12.60;;
56181;SDS011;51963;46.052;14.544;2023-04-24T09:36:32;23.02;;;12.02;;
56181;SDS011;51963;46.052;14.544;2023-04-24T09:39:04;18.80;;;11.60;;
56181;SDS011;51963;46.052;14.544;2023-04-24T09:41:33;19.75;;;11.45;;
56181;SDS011;51963;46.052;14.544;2023-04-24T09:46:55;19.05;;;11.05;;
56181;SDS011;51963;46.052;14.544;2023-04-24T09:49:22;19.15;;;10.57;;
56181;SDS011;51963;46.052;14.544;2023-04-24T09:51:52;19.58;;;11.25;;
56181;SDS011;51963;46.052;14.544;2023-04-24T09:54:28;18.58;;;11.90;;
56181;SDS011;51963;46.052;14.544;2023-04-24T09:56:55;20.08;;;12.05;;
56181;SDS011;51963;46.052;14.544;2023-04-24T09:59:21;16.75;;;11.27;;
56181;SDS011;51963;46.052;14.544;2023-04-24T10:01:50;17.40;;;12.05;;
56181;SDS011;51963;46.052;14.544;2023-04-24T10:04:19;23.30;;;12.52;;
56181;SDS011;51963;46.052;14.544;2023-04-24T10:06:50;21.40;;;12.68;;
56181;SDS011;51963;46.052;14.544;2023-04-24T10:09:19;19.90;;;11.30;;
56181;SDS011;51963;46.052;14.544;2023-04-24T10:11:47;20.48;;;11.63;;
56181;SDS011;51963;46.052;14.544;2023-04-24T10:16:41;18.60;;;10.68;;
56181;SDS011;51963;46.052;14.544;2023-04-24T10:19:08;17.08;;;10.60;;
56181;SDS011;51963;46.052;14.544;2023-04-24T10:21:34;15.32;;;10.00;;
56181;SDS011;51963;46.052;14.544;2023-04-24T10:24:06;19.35;;;10.18;;
56181;SDS011;51963;46.052;14.544;2023-04-24T10:26:32;21.98;;;11.68;;
56181;SDS011;51963;46.052;14.544;2023-04-24T10:28:59;17.88;;;11.57;;
56181;SDS011;51963;46.052;14.544;2023-04-24T10:31:26;13.30;;;9.10;;
56181;SDS011;51963;46.052;14.544;2023-04-24T10:33:56;15.10;;;7.60;;
56181;SDS011;51963;46.052;14.544;2023-04-24T10:36:22;14.35;;;8.68;;
56181;SDS011;51963;46.052;14.544;2023-04-24T10:38:51;13.15;;;7.38;;
56181;SDS011;51963;46.052;14.544;2023-04-24T10:41:20;14.63;;;8.18;;
56181;SDS011;51963;46.052;14.544;2023-04-24T10:44:09;15.68;;;8.63;;
56181;SDS011;51963;46.052;14.544;2023-04-24T10:46:35;15.30;;;7.90;;
56181;SDS011;51963;46.052;14.544;2023-04-24T10:49:05;15.30;;;8.05;;
56181;SDS011;51963;46.052;14.544;2023-04-24T10:51:51;17.52;;;7.43;;
56181;SDS011;51963;46.052;14.544;2023-04-24T10:54:30;16.42;;;7.55;;
56181;SDS011;51963;46.052;14.544;2023-04-24T10:59:45;15.32;;;8.15;;
56181;SDS011;51963;46.052;14.544;2023-04-24T11:02:13;13.65;;;7.75;;
56181;SDS011;51963;46.052;14.544;2023-04-24T11:04:43;11.13;;;6.88;;
56181;SDS011;51963;46.052;14.544;2023-04-24T11:07:16;14.00;;;6.85;;
56181;SDS011;51963;46.052;14.544;2023-04-24T11:09:42;7.88;;;5.15;;
56181;SDS011;51963;46.052;14.544;2023-04-24T11:12:08;7.45;;;4.97;;
56181;SDS011;51963;46.052;14.544;2023-04-24T11:17:32;6.75;;;4.50;;
56181;SDS011;51963;46.052;14.544;2023-04-24T11:20:22;7.35;;;4.78;;
56181;SDS011;51963;46.052;14.544;2023-04-24T11:22:49;6.90;;;4.45;;
56181;SDS011;51963;46.052;14.544;2023-04-24T11:25:20;7.90;;;4.93;;
56181;SDS011;51963;46.052;14.544;2023-04-24T11:27:47;9.70;;;5.43;;
56181;SDS011;51963;46.052;14.544;2023-04-24T11:30:19;11.83;;;5.70;;
56181;SDS011;51963;46.052;14.544;2023-04-24T11:32:49;9.02;;;6.25;;
56181;SDS011;51963;46.052;14.544;2023-04-24T11:37:51;8.13;;;5.13;;
56181;SDS011;51963;46.052;14.544;2023-04-24T11:40:19;9.40;;;6.07;;
56181;SDS011;51963;46.052;14.544;2023-04-24T11:42:49;9.10;;;5.20;;
56181;SDS011;51963;46.052;14.544;2023-04-24T11:45:20;12.70;;;6.13;;
56181;SDS011;51963;46.052;14.544;2023-04-24T11:47:47;10.73;;;5.35;;
56181;SDS011;51963;46.052;14.544;2023-04-24T11:50:19;7.30;;;5.00;;
56181;SDS011;51963;46.052;14.544;2023-04-24T11:52:48;6.97;;;5.30;;
56181;SDS011;51963;46.052;14.544;2023-04-24T11:57:44;12.35;;;7.30;;
56181;SDS011;51963;46.052;14.544;2023-04-24T12:00:22;12.40;;;6.60;;
56181;SDS011;51963;46.052;14.544;2023-04-24T12:02:53;13.55;;;7.00;;
56181;SDS011;51963;46.052;14.544;2023-04-24T12:05:32;8.05;;;6.10;;
56181;SDS011;51963;46.052;14.544;2023-04-24T12:07:58;12.68;;;6.72;;
56181;SDS011;51963;46.052;14.544;2023-04-24T12:10:25;10.63;;;6.63;;
56181;SDS011;51963;46.052;14.544;2023-04-24T12:12:53;14.90;;;7.90;;
56181;SDS011;51963;46.052;14.544;2023-04-24T12:15:20;13.15;;;7.07;;
56181;SDS011;51963;46.052;14.544;2023-04-24T12:17:48;12.00;;;7.80;;
56181;SDS011;51963;46.052;14.544;2023-04-24T12:20:16;13.27;;;8.90;;
56181;SDS011;51963;46.052;14.544;2023-04-24T12:22:52;17.75;;;9.10;;
56181;SDS011;51963;46.052;14.544;2023-04-24T12:25:31;14.27;;;8.77;;
56181;SDS011;51963;46.052;14.544;2023-04-24T12:30:30;13.93;;;8.15;;
56181;SDS011;51963;46.052;14.544;2023-04-24T12:33:03;12.45;;;8.25;;
56181;SDS011;51963;46.052;14.544;2023-04-24T12:35:30;13.73;;;8.45;;
56181;SDS011;51963;46.052;14.544;2023-04-24T12:38:09;11.95;;;7.68;;
56181;SDS011;51963;46.052;14.544;2023-04-24T12:40:40;12.98;;;7.82;;
56181;SDS011;51963;46.052;14.544;2023-04-24T12:43:19;12.15;;;7.90;;
56181;SDS011;51963;46.052;14.544;2023-04-24T12:45:47;15.07;;;9.27;;
56181;SDS011;51963;46.052;14.544;2023-04-24T12:48:13;18.83;;;9.95;;
56181;SDS011;51963;46.052;14.544;2023-04-24T12:50:42;12.60;;;8.20;;
56181;SDS011;51963;46.052;14.544;2023-04-24T12:53:11;14.00;;;9.27;;
56181;SDS011;51963;46.052;14.544;2023-04-24T12:55:37;16.33;;;9.77;;
56181;SDS011;51963;46.052;14.544;2023-04-24T12:58:05;18.00;;;10.18;;
56181;SDS011;51963;46.052;14.544;2023-04-24T13:00:34;17.88;;;11.27;;
56181;SDS011;51963;46.052;14.544;2023-04-24T13:03:00;20.30;;;10.68;;
56181;SDS011;51963;46.052;14.544;2023-04-24T13:05:26;18.00;;;10.68;;
56181;SDS011;51963;46.052;14.544;2023-04-24T13:08:02;20.90;;;10.98;;
56181;SDS011;51963;46.052;14.544;2023-04-24T13:10:30;15.10;;;8.75;;
56181;SDS011;51963;46.052;14.544;2023-04-24T13:12:59;11.77;;;7.82;;
56181;SDS011;51963;46.052;14.544;2023-04-24T13:15:25;9.98;;;5.72;;
56181;SDS011;51963;46.052;14.544;2023-04-24T13:17:50;9.88;;;5.88;;
56181;SDS011;51963;46.052;14.544;2023-04-24T13:20:16;9.15;;;4.63;;
56181;SDS011;51963;46.052;14.544;2023-04-24T13:22:43;5.68;;;3.88;;
56181;SDS011;51963;46.052;14.544;2023-04-24T13:25:09;6.10;;;3.88;;
56181;SDS011;51963;46.052;14.544;2023-04-24T13:27:35;5.60;;;3.35;;
56181;SDS011;51963;46.052;14.544;2023-04-24T13:30:05;4.70;;;3.42;;
56181;SDS011;51963;46.052;14.544;2023-04-24T13:32:32;4.15;;;2.90;;
56181;SDS011;51963;46.052;14.544;2023-04-24T13:35:01;4.75;;;2.50;;
56181;SDS011;51963;46.052;14.544;2023-04-24T13:37:27;2.58;;;2.30;;
56181;SDS011;51963;46.052;14.544;2023-04-24T13:39:56;5.07;;;1.90;;
56181;SDS011;51963;46.052;14.544;2023-04-24T13:42:22;4.43;;;2.22;;
56181;SDS011;51963;46.052;14.544;2023-04-24T13:44:51;3.40;;;2.28;;
56181;SDS011;51963;46.052;14.544;2023-04-24T13:47:17;3.63;;;2.78;;
56181;SDS011;51963;46.052;14.544;2023-04-24T13:49:43;4.70;;;3.10;;
56181;SDS011;51963;46.052;14.544;2023-04-24T13:52:11;3.83;;;2.50;;
56181;SDS011;51963;46.052;14.544;2023-04-24T13:54:40;4.20;;;2.88;;
56181;SDS011;51963;46.052;14.544;2023-04-24T13:57:06;35.67;;;23.02;;
56181;SDS011;51963;46.052;14.544;2023-04-24T13:59:32;3.83;;;2.78;;
56181;SDS011;51963;46.052;14.544;2023-04-24T14:01:57;4.75;;;2.78;;
56181;SDS011;51963;46.052;14.544;2023-04-24T14:04:23;4.10;;;2.50;;
56181;SDS011;51963;46.052;14.544;2023-04-24T14:06:52;10.45;;;3.10;;
56181;SDS011;51963;46.052;14.544;2023-04-24T14:11:43;5.70;;;3.00;;
56181;SDS011;51963;46.052;14.544;2023-04-24T14:14:09;6.38;;;3.25;;
56181;SDS011;51963;46.052;14.544;2023-04-24T14:16:35;5.35;;;3.22;;
56181;SDS011;51963;46.052;14.544;2023-04-24T14:19:04;4.80;;;3.60;;
56181;SDS011;51963;46.052;14.544;2023-04-24T14:21:30;6.72;;;3.30;;
56181;SDS011;51963;46.052;14.544;2023-04-24T14:23:56;6.95;;;3.47;;
56181;SDS011;51963;46.052;14.544;2023-04-24T14:26:22;4.90;;;3.83;;
56181;SDS011;51963;46.052;14.544;2023-04-24T14:28:48;7.10;;;3.58;;
56181;SDS011;51963;46.052;14.544;2023-04-24T14:31:14;3.38;;;2.83;;
56181;SDS011;51963;46.052;14.544;2023-04-24T14:33:39;6.32;;;3.67;;
56181;SDS011;51963;46.052;14.544;2023-04-24T14:36:05;4.80;;;3.42;;
56181;SDS011;51963;46.052;14.544;2023-04-24T14:38:31;5.45;;;3.22;;
56181;SDS011;51963;46.052;14.544;2023-04-24T14:40:57;7.22;;;4.30;;
56181;SDS011;51963;46.052;14.544;2023-04-24T14:43:23;6.90;;;4.72;;
56181;SDS011;51963;46.052;14.544;2023-04-24T14:45:49;8.07;;;4.43;;
56181;SDS011;51963;46.052;14.544;2023-04-24T14:48:15;6.70;;;4.35;;
56181;SDS011;51963;46.052;14.544;2023-04-24T14:50:41;4.63;;;3.58;;
56181;SDS011;51963;46.052;14.544;2023-04-24T14:53:07;6.97;;;4.18;;
56181;SDS011;51963;46.052;14.544;2023-04-24T14:55:33;7.88;;;4.75;;